Time;durP1;ratioP1;P1;durP2;ratioP2;P2;SDS_P1;SDS_P2;PMS_P1;PMS_P2;Temp;Humidity;BMP_temperature;BMP_pressure;BME280_temperature;BME280_humidity;BME280_pressure;Samples;Min_cycle;Max_cycle;Signal;HPM_P1;HPM_P2
2023/06/25 00:01:09;;;;;;;7.28;5.40;;;;;;;18.89;100.00;97744.13;4993695;28;20900;-73
2023/06/25 00:03:35;;;;;;;6.03;5.05;;;;;;;18.86;100.00;97748.22;4993360;28;20970;-72
2023/06/25 00:06:01;;;;;;;5.95;5.20;;;;;;;18.86;100.00;97742.06;4992296;28;20443;-72
2023/06/25 00:08:27;;;;;;;6.20;5.07;;;;;;;18.80;100.00;97749.38;4993507;28;20410;-72
2023/06/25 00:10:54;;;;;;;6.55;5.22;;;;;;;18.77;100.00;97751.88;4993170;28;20426;-73
2023/06/25 00:13:21;;;;;;;7.55;5.45;;;;;;;18.75;100.00;97746.78;4993188;28;20678;-73
2023/06/25 00:15:47;;;;;;;6.13;5.00;;;;;;;18.75;100.00;97744.13;4993256;28;20811;-73
2023/06/25 00:18:14;;;;;;;8.23;5.63;;;;;;;18.75;100.00;97738.75;4993219;28;20429;-73
2023/06/25 00:20:40;;;;;;;7.40;5.68;;;;;;;18.76;100.00;97743.03;4992819;28;20410;-73
2023/06/25 00:23:06;;;;;;;8.00;5.93;;;;;;;18.71;100.00;97739.66;4992951;28;20414;-74
2023/06/25 00:25:33;;;;;;;7.10;5.72;;;;;;;18.66;100.00;97740.50;4993314;28;20418;-74
2023/06/25 00:28:00;;;;;;;7.03;5.50;;;;;;;18.63;100.00;97735.75;4993080;28;20413;-73
2023/06/25 00:30:27;;;;;;;6.53;5.50;;;;;;;18.62;100.00;97738.72;4992588;28;20497;-73
2023/06/25 00:32:56;;;;;;;7.10;5.53;;;;;;;18.59;100.00;97736.63;4992580;28;20509;-73
2023/06/25 00:35:26;;;;;;;7.20;5.70;;;;;;;18.55;100.00;97734.50;4993032;28;20504;-73
2023/06/25 00:37:57;;;;;;;7.40;5.78;;;;;;;18.52;100.00;97734.28;4992951;28;20749;-73
2023/06/25 00:40:23;;;;;;;7.78;5.68;;;;;;;18.50;100.00;97736.47;4992801;28;20534;-73
2023/06/25 00:42:56;;;;;;;5.65;4.80;;;;;;;18.49;100.00;97732.97;4992825;28;20768;-73
2023/06/25 00:45:26;;;;;;;6.43;4.88;;;;;;;18.49;100.00;97735.66;4992343;28;20422;-73
2023/06/25 00:47:54;;;;;;;7.05;5.75;;;;;;;18.46;100.00;97730.91;4993060;28;20429;-73
2023/06/25 00:50:21;;;;;;;6.90;5.40;;;;;;;18.43;100.00;97733.34;4992598;28;20410;-73
2023/06/25 00:52:48;;;;;;;6.68;5.15;;;;;;;18.41;100.00;97722.16;4991290;28;20414;-73
2023/06/25 00:55:14;;;;;;;7.28;5.70;;;;;;;18.36;100.00;97724.91;4992268;28;20768;-73
2023/06/25 00:57:43;;;;;;;7.45;5.97;;;;;;;18.30;100.00;97726.88;4991780;28;21284;-73
2023/06/25 01:00:14;;;;;;;7.15;5.88;;;;;;;18.24;100.00;97732.59;4992393;28;20487;-74
2023/06/25 01:02:46;;;;;;;6.45;5.50;;;;;;;18.19;100.00;97725.44;4992353;28;20410;-73
2023/06/25 01:05:19;;;;;;;9.35;6.40;;;;;;;18.15;100.00;97722.53;5001837;28;20409;-73
2023/06/25 01:07:47;;;;;;;7.38;5.63;;;;;;;18.13;100.00;97715.88;4993148;28;20415;-73
2023/06/25 01:10:14;;;;;;;6.93;5.60;;;;;;;18.13;100.00;97713.19;4992375;28;20418;-74
2023/06/25 01:12:42;;;;;;;7.78;5.85;;;;;;;18.11;100.00;97713.50;4991702;28;20449;-73
2023/06/25 01:15:09;;;;;;;7.32;5.80;;;;;;;18.09;100.00;97715.69;4992190;28;20923;-73
2023/06/25 01:17:36;;;;;;;7.72;5.90;;;;;;;18.07;100.00;97709.00;5000874;28;20415;-73
2023/06/25 01:20:05;;;;;;;6.80;5.70;;;;;;;18.04;100.00;97706.94;4991799;28;20908;-73
2023/06/25 01:22:33;;;;;;;6.97;5.83;;;;;;;18.01;100.00;97710.19;4991827;28;20406;-73
2023/06/25 01:25:00;;;;;;;8.27;6.07;;;;;;;18.01;100.00;97704.81;4991662;28;20432;-73
2023/06/25 01:27:26;;;;;;;6.90;5.63;;;;;;;17.99;100.00;97697.06;4991821;28;20414;-73
2023/06/25 01:29:54;;;;;;;8.10;5.90;;;;;;;17.96;100.00;97695.00;4992130;28;20873;-73
2023/06/25 01:32:22;;;;;;;8.57;5.40;;;;;;;17.94;100.00;97704.38;4991757;28;20468;-73
2023/06/25 01:34:48;;;;;;;8.10;6.10;;;;;;;17.88;100.00;97701.00;4991876;28;20473;-73
2023/06/25 01:37:17;;;;;;;7.18;5.75;;;;;;;17.87;100.00;97701.28;4991516;28;21008;-73
2023/06/25 01:39:47;;;;;;;6.68;5.25;;;;;;;17.87;100.00;97704.75;4991820;28;20425;-73
2023/06/25 01:42:14;;;;;;;7.65;5.95;;;;;;;17.87;100.00;97703.97;4990949;28;20410;-73
2023/06/25 01:44:40;;;;;;;6.53;5.30;;;;;;;17.87;100.00;97702.06;4991878;28;20429;-73
2023/06/25 01:47:06;;;;;;;8.20;6.22;;;;;;;17.85;100.00;97701.56;4991614;28;20410;-73
2023/06/25 01:49:33;;;;;;;7.65;5.95;;;;;;;17.83;100.00;97697.56;4991552;28;20418;-73
2023/06/25 01:52:00;;;;;;;7.18;5.82;;;;;;;17.81;100.00;97691.72;4991696;28;20406;-74
2023/06/25 01:54:26;;;;;;;7.13;5.80;;;;;;;17.74;100.00;97686.75;4990835;28;20768;-73
2023/06/25 01:56:54;;;;;;;6.60;5.82;;;;;;;17.70;100.00;97685.72;4990680;28;20983;-73
2023/06/25 01:59:20;;;;;;;7.82;5.85;;;;;;;17.66;100.00;97682.03;4991243;28;20422;-74
2023/06/25 02:01:46;;;;;;;7.07;5.85;;;;;;;17.63;100.00;97679.94;4991333;28;20414;-74
2023/06/25 02:04:13;;;;;;;7.65;5.45;;;;;;;17.61;100.00;97680.22;4991071;28;20418;-73
2023/06/25 02:06:39;;;;;;;7.25;5.78;;;;;;;17.60;100.00;97677.78;4991467;28;20473;-74
2023/06/25 02:09:07;;;;;;;8.02;5.82;;;;;;;17.60;100.00;97675.91;4991209;28;20418;-74
2023/06/25 02:11:33;;;;;;;8.23;6.33;;;;;;;17.57;100.00;97673.03;4991335;28;20422;-74
2023/06/25 02:14:00;;;;;;;7.05;5.97;;;;;;;17.53;100.00;97672.78;4991016;28;20406;-74
2023/06/25 02:16:27;;;;;;;7.47;5.78;;;;;;;17.53;100.00;97669.31;4991177;28;20468;-74
2023/06/25 02:18:53;;;;;;;6.65;5.55;;;;;;;17.51;100.00;97672.31;4990886;28;20430;-74
2023/06/25 02:21:19;;;;;;;6.68;5.30;;;;;;;17.50;100.00;97665.34;4990882;28;20441;-74
2023/06/25 02:23:46;;;;;;;6.50;5.30;;;;;;;17.50;100.00;97659.19;4990940;28;20420;-73
2023/06/25 02:26:12;;;;;;;7.72;6.00;;;;;;;17.50;100.00;97665.34;4990870;28;20839;-74
2023/06/25 02:28:38;;;;;;;6.63;5.53;;;;;;;17.47;100.00;97655.22;4990715;28;20411;-74
2023/06/25 02:31:05;;;;;;;7.57;5.85;;;;;;;17.45;100.00;97657.38;4990958;28;20433;-74
2023/06/25 02:33:32;;;;;;;7.60;5.50;;;;;;;17.43;100.00;97656.88;4991021;28;20414;-74
2023/06/25 02:35:58;;;;;;;8.02;6.47;;;;;;;17.39;100.00;97656.66;4990733;28;20411;-74
2023/06/25 02:38:24;;;;;;;8.90;6.70;;;;;;;17.36;100.00;97656.44;4991113;28;20406;-74
2023/06/25 02:40:50;;;;;;;7.78;6.65;;;;;;;17.33;100.00;97662.38;4990992;28;20422;-74
2023/06/25 02:43:16;;;;;;;9.70;6.68;;;;;;;17.29;100.00;97662.13;4990280;28;20414;-74
2023/06/25 02:45:43;;;;;;;8.65;6.75;;;;;;;17.26;100.00;97654.69;4990995;28;20446;-74
2023/06/25 02:48:10;;;;;;;6.97;6.07;;;;;;;17.24;100.00;97658.72;4990968;28;20423;-74
2023/06/25 02:50:37;;;;;;;6.90;5.83;;;;;;;17.22;100.00;97659.00;4990979;28;20506;-74
2023/06/25 02:53:03;;;;;;;7.05;5.70;;;;;;;17.22;100.00;97655.53;4991053;28;20501;-73
2023/06/25 02:55:29;;;;;;;7.45;6.13;;;;;;;17.19;100.00;97651.56;4995114;28;20477;-73
2023/06/25 02:57:56;;;;;;;8.25;6.72;;;;;;;17.18;100.00;97655.31;4994709;28;20418;-74
2023/06/25 03:00:22;;;;;;;10.30;6.35;;;;;;;17.15;100.00;97647.06;4993717;28;20756;-74
2023/06/25 03:02:48;;;;;;;8.63;6.53;;;;;;;17.10;100.00;97644.47;4994548;28;20502;-74
2023/06/25 03:05:16;;;;;;;8.83;6.53;;;;;;;17.02;100.00;97643.22;4994547;28;20422;-73
2023/06/25 03:07:49;;;;;;;9.52;7.30;;;;;;;16.98;100.00;97648.34;4994954;28;20410;-74
2023/06/25 03:10:15;;;;;;;8.05;6.43;;;;;;;16.95;100.00;97648.91;4994719;28;20429;-74
2023/06/25 03:12:42;;;;;;;9.95;6.88;;;;;;;16.94;100.00;97649.19;4994030;28;20556;-74
2023/06/25 03:15:09;;;;;;;8.77;6.50;;;;;;;16.92;100.00;97657.50;4994518;28;20414;-74
2023/06/25 03:17:35;;;;;;;10.02;6.97;;;;;;;16.91;100.00;97650.56;4994525;28;20741;-74
2023/06/25 03:20:03;;;;;;;8.60;6.68;;;;;;;16.89;100.00;97660.75;4994263;28;20437;-74
2023/06/25 03:22:31;;;;;;;8.13;6.87;;;;;;;16.89;100.00;97652.72;4994075;28;20407;-74
2023/06/25 03:24:57;;;;;;;7.80;6.15;;;;;;;16.89;100.00;97657.28;4993861;28;20754;-74
2023/06/25 03:27:23;;;;;;;10.13;6.83;;;;;;;16.86;100.00;97650.63;4994157;28;20410;-74
2023/06/25 03:29:49;;;;;;;9.23;6.60;;;;;;;16.86;100.00;97660.50;4994242;28;20529;-74
2023/06/25 03:32:16;;;;;;;7.97;6.75;;;;;;;16.84;100.00;97647.41;4993390;28;20780;-74
2023/06/25 03:34:42;;;;;;;8.13;6.82;;;;;;;16.83;100.00;97648.53;4992583;28;20425;-74
2023/06/25 03:37:08;;;;;;;10.82;7.28;;;;;;;16.81;100.00;97647.22;4993981;28;20422;-74
2023/06/25 03:39:35;;;;;;;8.23;6.90;;;;;;;16.79;100.00;97646.69;4994284;28;20407;-74
2023/06/25 03:42:02;;;;;;;8.77;6.80;;;;;;;16.79;100.00;97650.16;4994115;28;20410;-74
2023/06/25 03:44:28;;;;;;;10.30;7.70;;;;;;;16.82;100.00;97654.94;4993310;28;20480;-73
2023/06/25 03:46:54;;;;;;;9.40;7.40;;;;;;;16.78;100.00;97640.53;4993524;28;20420;-73
2023/06/25 03:49:20;;;;;;;9.15;7.28;;;;;;;16.79;100.00;97639.47;4993823;28;20418;-74
2023/06/25 03:51:47;;;;;;;8.35;6.72;;;;;;;16.80;100.00;97641.06;4993632;28;20426;-74
2023/06/25 03:54:13;;;;;;;9.15;7.10;;;;;;;16.77;100.00;97644.28;4993062;28;20417;-74
2023/06/25 03:56:40;;;;;;;9.05;7.10;;;;;;;16.80;100.00;97642.94;4993825;28;20918;-74
2023/06/25 03:59:06;;;;;;;8.32;6.88;;;;;;;16.81;100.00;97642.66;4993678;28;20410;-74
2023/06/25 04:01:33;;;;;;;8.55;6.80;;;;;;;16.80;100.00;97642.94;4993626;28;20461;-73
2023/06/25 04:03:59;;;;;;;8.25;6.68;;;;;;;16.78;100.00;97643.22;4992891;28;20414;-74
2023/06/25 04:06:25;;;;;;;8.93;7.10;;;;;;;16.79;100.00;97631.44;4993111;28;20772;-73
2023/06/25 04:08:51;;;;;;;8.85;7.22;;;;;;;16.84;100.00;97635.97;4993376;28;20422;-73
2023/06/25 04:11:18;;;;;;;8.35;7.03;;;;;;;16.87;100.00;97638.03;4993604;28;20486;-74
2023/06/25 04:13:45;;;;;;;8.20;6.53;;;;;;;16.90;100.00;97635.63;4992884;28;20765;-74
2023/06/25 04:16:11;;;;;;;10.02;7.47;;;;;;;16.94;100.00;97633.16;4993643;28;20756;-74
2023/06/25 04:18:42;;;;;;;9.10;7.30;;;;;;;16.97;100.00;97636.06;4993103;28;20447;-74
2023/06/25 04:21:08;;;;;;;7.70;6.60;;;;;;;17.02;100.00;97629.84;4993455;28;20445;-74
2023/06/25 04:23:34;;;;;;;7.40;6.32;;;;;;;17.06;100.00;97633.56;4992605;28;20449;-74
2023/06/25 04:26:00;;;;;;;8.30;6.55;;;;;;;17.08;100.00;97630.56;4993453;28;20501;-74
2023/06/25 04:28:26;;;;;;;8.93;6.80;;;;;;;17.09;100.00;97635.63;4993115;28;20422;-74
2023/06/25 04:30:54;;;;;;;7.78;6.63;;;;;;;17.12;100.00;97632.41;4993327;28;20473;-74
2023/06/25 04:33:20;;;;;;;7.85;6.20;;;;;;;17.15;100.00;97621.09;4992618;28;20485;-74
2023/06/25 04:35:46;;;;;;;7.50;6.65;;;;;;;17.21;100.00;97622.66;4992770;28;20442;-74
2023/06/25 04:38:13;;;;;;;7.00;5.88;;;;;;;17.27;100.00;97618.03;4993059;28;20493;-74
2023/06/25 04:40:40;;;;;;;7.30;5.75;;;;;;;17.31;100.00;97624.38;4992943;28;20464;-74
2023/06/25 04:43:06;;;;;;;7.38;5.97;;;;;;;17.36;100.00;97627.81;4992923;28;20417;-74
2023/06/25 04:45:32;;;;;;;7.43;5.93;;;;;;;17.42;100.00;97623.19;4992058;28;20490;-74
2023/06/25 04:48:00;;;;;;;6.72;5.80;;;;;;;17.49;100.00;97620.13;4992465;28;20418;-74
2023/06/25 04:50:26;;;;;;;6.97;5.53;;;;;;;17.54;100.00;97626.22;4992014;28;20463;-74
2023/06/25 04:52:54;;;;;;;7.05;6.03;;;;;;;17.60;100.00;97614.34;4992306;28;20406;-73
2023/06/25 04:55:20;;;;;;;7.45;5.80;;;;;;;17.67;100.00;97624.69;4992455;28;20741;-74
2023/06/25 04:57:47;;;;;;;7.32;5.88;;;;;;;17.75;100.00;97622.16;4992265;28;20448;-74
2023/06/25 05:00:14;;;;;;;6.07;5.47;;;;;;;17.86;100.00;97616.66;4986898;28;20440;-74
2023/06/25 05:02:40;;;;;;;6.30;4.88;;;;;;;17.95;100.00;97622.94;4973106;28;20436;-74
2023/06/25 05:05:08;;;;;;;5.60;4.88;;;;;;;18.03;100.00;97624.97;4986196;28;20469;-74
2023/06/25 05:07:34;;;;;;;6.35;5.05;;;;;;;18.13;100.00;97622.91;4992665;28;20438;-74
2023/06/25 05:10:01;;;;;;;5.60;4.90;;;;;;;18.23;100.00;97619.25;4986680;28;20419;-73
2023/06/25 05:12:27;;;;;;;6.55;5.30;;;;;;;18.32;100.00;97624.75;4980105;28;20416;-74
2023/06/25 05:14:53;;;;;;;6.18;5.15;;;;;;;18.42;100.00;97632.59;4982839;28;20420;-74
2023/06/25 05:17:19;;;;;;;6.40;5.13;;;;;;;18.51;100.00;97631.63;4980420;28;20481;-74
2023/06/25 05:19:45;;;;;;;7.00;5.70;;;;;;;18.60;100.00;97628.28;4982066;28;20451;-73
2023/06/25 05:22:13;;;;;;;7.45;5.80;;;;;;;18.66;100.00;97638.63;4981900;28;20412;-73
2023/06/25 05:24:39;;;;;;;7.38;6.05;;;;;;;18.74;100.00;97637.13;4981684;28;20424;-73
2023/06/25 05:27:06;;;;;;;10.32;6.65;;;;;;;18.70;100.00;97634.25;4982985;28;20415;-73
2023/06/25 05:29:32;;;;;;;7.60;6.15;;;;;;;18.81;100.00;97641.00;4981181;28;20429;-73
2023/06/25 05:31:59;;;;;;;8.15;5.65;;;;;;;18.89;100.00;97640.31;4981122;28;20489;-73
2023/06/25 05:34:25;;;;;;;8.70;5.93;;;;;;;18.94;100.00;97634.84;4980606;28;20435;-73
2023/06/25 05:36:51;;;;;;;7.63;5.85;;;;;;;19.04;100.00;97633.84;4981308;28;20794;-73
2023/06/25 05:39:19;;;;;;;6.60;5.43;;;;;;;19.12;100.00;97635.84;4984520;28;20410;-73
2023/06/25 05:41:45;;;;;;;8.63;5.35;;;;;;;19.15;100.00;97632.56;4982861;28;20424;-73
2023/06/25 05:44:11;;;;;;;6.85;5.30;;;;;;;19.24;100.00;97641.50;4987435;28;20446;-73
2023/06/25 05:46:37;;;;;;;15.82;5.63;;;;;;;19.31;100.00;97635.72;4983992;28;20433;-73
2023/06/25 05:49:03;;;;;;;10.30;5.85;;;;;;;19.29;100.00;97641.38;4981669;28;20424;-73
2023/06/25 05:51:30;;;;;;;9.40;5.70;;;;;;;19.38;100.00;97646.06;4982629;28;20416;-73
2023/06/25 05:53:56;;;;;;;8.30;5.30;;;;;;;19.41;100.00;97646.22;4971194;28;20416;-73
2023/06/25 05:56:25;;;;;;;5.77;4.80;;;;;;;19.44;100.00;97642.94;4972380;28;20452;-73
2023/06/25 05:58:51;;;;;;;6.40;4.90;;;;;;;19.47;100.00;97637.00;4973177;28;20794;-73
2023/06/25 06:01:18;;;;;;;6.90;5.15;;;;;;;19.46;100.00;97646.13;4971695;28;20427;-73
2023/06/25 06:03:44;;;;;;;9.52;6.10;;;;;;;19.40;100.00;97641.16;4973019;28;20412;-73
2023/06/25 06:06:11;;;;;;;7.43;4.93;;;;;;;19.40;100.00;97633.09;4979478;28;20497;-73
2023/06/25 06:08:37;;;;;;;8.95;5.53;;;;;;;19.40;100.00;97647.31;4991718;28;20437;-73
2023/06/25 06:11:03;;;;;;;6.95;5.05;;;;;;;19.45;100.00;97644.53;4979721;28;20455;-73
2023/06/25 06:13:31;;;;;;;7.57;4.95;;;;;;;19.51;100.00;97640.69;4975991;28;20970;-72
2023/06/25 06:15:57;;;;;;;7.95;5.65;;;;;;;19.47;100.00;97634.31;4989564;28;20417;-72
2023/06/25 06:18:23;;;;;;;6.53;4.97;;;;;;;19.52;100.00;97638.78;4991280;28;20411;-72
2023/06/25 06:20:49;;;;;;;7.50;5.00;;;;;;;19.58;100.00;97640.25;4979269;28;20778;-73
2023/06/25 06:23:16;;;;;;;5.00;4.15;;;;;;;19.66;100.00;97642.22;4971141;28;20438;-74
2023/06/25 06:25:42;;;;;;;4.85;3.85;;;;;;;19.73;100.00;97641.81;4978123;28;20419;-73
2023/06/25 06:28:08;;;;;;;9.88;6.22;;;;;;;19.69;100.00;97642.44;4982130;28;20411;-74
2023/06/25 06:30:37;;;;;;;7.45;5.03;;;;;;;19.78;100.00;97639.00;4986315;28;20426;-75
2023/06/25 06:33:03;;;;;;;5.55;4.53;;;;;;;19.84;100.00;97641.28;4989203;28;20410;-76
2023/06/25 06:35:29;;;;;;;4.85;4.07;;;;;;;19.91;100.00;97638.16;4992081;28;20441;-77
2023/06/25 06:37:55;;;;;;;4.18;3.70;;;;;;;19.98;100.00;97641.22;4990235;28;20422;-75
2023/06/25 06:40:22;;;;;;;4.33;3.60;;;;;;;20.05;100.00;97639.69;4989946;28;20810;-74
2023/06/25 06:42:48;;;;;;;6.40;4.70;;;;;;;20.09;100.00;97637.97;4988844;28;20429;-73
2023/06/25 06:45:15;;;;;;;4.40;3.58;;;;;;;20.15;100.00;97630.56;4990236;28;20522;-73
2023/06/25 06:47:44;;;;;;;4.57;3.80;;;;;;;20.22;100.00;97635.53;4989025;28;20930;-74
2023/06/25 06:50:10;;;;;;;5.47;3.70;;;;;;;20.27;100.00;97636.19;4988565;28;20445;-73
2023/06/25 06:52:37;;;;;;;4.77;3.73;;;;;;;20.32;100.00;97632.56;4989568;28;20426;-74
2023/06/25 06:55:03;;;;;;;5.13;3.67;;;;;;;20.38;100.00;97636.75;4989100;28;20418;-73
2023/06/25 06:57:29;;;;;;;4.83;4.10;;;;;;;20.42;100.00;97640.44;4991140;28;20437;-73
2023/06/25 06:59:56;;;;;;;4.78;3.85;;;;;;;20.45;100.00;97637.09;4990654;28;20461;-73
2023/06/25 07:02:22;;;;;;;4.63;3.83;;;;;;;20.48;100.00;97639.19;4990690;28;20418;-73
2023/06/25 07:04:50;;;;;;;4.85;4.13;;;;;;;20.50;100.00;97636.19;4990534;28;20415;-73
2023/06/25 07:07:16;;;;;;;4.80;4.05;;;;;;;20.52;100.00;97632.09;4991319;28;20479;-73
2023/06/25 07:09:50;;;;;;;4.72;4.07;;;;;;;20.54;100.00;97637.16;4990853;28;20425;-73
2023/06/25 07:12:16;;;;;;;4.57;3.78;;;;;;;20.57;100.00;97628.47;4971939;28;20411;-73
2023/06/25 07:14:43;;;;;;;6.45;4.68;;;;;;;20.59;100.00;97629.75;4979402;28;20411;-73
2023/06/25 07:17:09;;;;;;;5.53;4.60;;;;;;;20.63;100.00;97633.41;4978955;28;20414;-72
2023/06/25 07:19:35;;;;;;;5.30;4.20;;;;;;;20.68;100.00;97637.84;4977002;28;20420;-73
2023/06/25 07:22:03;;;;;;;6.80;4.32;;;;;;;20.73;100.00;97632.34;4981966;28;20403;-72
2023/06/25 07:24:29;;;;;;;6.85;4.80;;;;;;;20.75;100.00;97635.53;4984808;28;21020;-72
2023/06/25 07:26:56;;;;;;;5.87;4.33;;;;;;;20.79;100.00;97641.88;4986126;28;20955;-72
2023/06/25 07:29:22;;;;;;;4.30;3.90;;;;;;;20.82;100.00;97641.25;4985078;28;20497;-73
2023/06/25 07:31:48;;;;;;;4.93;4.15;;;;;;;20.86;100.00;97645.69;4985778;28;20419;-73
2023/06/25 07:34:14;;;;;;;4.53;3.90;;;;;;;20.95;100.00;97639.56;4989224;28;20410;-74
2023/06/25 07:36:41;;;;;;;9.47;6.27;;;;;;;20.89;100.00;97641.59;4986557;28;20406;-74
2023/06/25 07:39:08;;;;;;;9.00;6.07;;;;;;;20.95;100.00;97634.16;4988704;28;20888;-76
2023/06/25 07:41:34;;;;;;;6.57;5.18;;;;;;;21.00;100.00;97642.09;4992861;28;20422;-75
2023/06/25 07:44:01;;;;;;;6.57;4.97;;;;;;;21.06;100.00;97646.22;4991944;28;20831;-73
2023/06/25 07:46:27;;;;;;;6.60;5.32;;;;;;;21.12;100.00;97636.91;4992316;28;20498;-74
2023/06/25 07:48:53;;;;;;;6.72;5.35;;;;;;;21.16;100.00;97638.69;4993271;28;20433;-74
2023/06/25 07:51:19;;;;;;;8.05;5.88;;;;;;;21.20;100.00;97639.63;4992317;28;20411;-75
2023/06/25 07:53:45;;;;;;;7.82;5.88;;;;;;;21.29;100.00;97642.34;4992110;28;20422;-74
2023/06/25 07:56:13;;;;;;;7.67;5.83;;;;;;;21.30;100.00;97635.88;4992488;28;20484;-75
2023/06/25 07:58:39;;;;;;;9.48;6.45;;;;;;;21.34;100.00;97636.03;4993083;28;20418;-74
2023/06/25 08:01:05;;;;;;;9.82;7.07;;;;;;;21.37;100.00;97628.13;4993065;28;20795;-75
2023/06/25 08:03:31;;;;;;;8.33;6.03;;;;;;;21.48;100.00;97632.09;4992534;28;20473;-75
2023/06/25 08:05:58;;;;;;;7.57;5.75;;;;;;;21.54;100.00;97625.44;4992654;28;20415;-75
2023/06/25 08:08:24;;;;;;;6.90;5.38;;;;;;;21.66;100.00;97621.31;4992899;28;20438;-75
2023/06/25 08:10:51;;;;;;;7.53;5.25;;;;;;;21.77;100.00;97628.00;4992787;28;20461;-75
2023/06/25 08:13:20;;;;;;;8.65;6.30;;;;;;;21.85;100.00;97619.13;4990823;28;20422;-75
2023/06/25 08:15:46;;;;;;;7.63;5.40;;;;;;;21.93;100.00;97631.78;4986342;28;20456;-75
2023/06/25 08:18:12;;;;;;;11.82;7.28;;;;;;;21.95;95.37;97630.34;4989197;28;20465;-73
2023/06/25 08:20:40;;;;;;;8.77;6.38;;;;;;;22.04;100.00;97627.69;4991006;28;20489;-73
2023/06/25 08:23:06;;;;;;;7.10;5.22;;;;;;;22.17;100.00;97621.34;4991012;28;20410;-75
2023/06/25 08:25:32;;;;;;;8.05;5.57;;;;;;;22.27;100.00;97626.38;4991865;28;20419;-74
2023/06/25 08:27:58;;;;;;;8.27;6.20;;;;;;;22.40;100.00;97622.69;4987729;28;20418;-74
2023/06/25 08:30:26;;;;;;;6.95;5.65;;;;;;;22.50;100.00;97608.06;4991137;28;20884;-74
2023/06/25 08:32:52;;;;;;;10.15;6.35;;;;;;;22.58;100.00;97614.53;4991734;28;20418;-74
2023/06/25 08:35:19;;;;;;;7.05;5.35;;;;;;;22.67;100.00;97610.72;4990228;28;20799;-74
2023/06/25 08:37:45;;;;;;;7.93;5.75;;;;;;;22.76;100.00;97613.41;4987119;28;20565;-74
2023/06/25 08:40:12;;;;;;;6.10;5.00;;;;;;;22.88;100.00;97618.91;4991485;28;20414;-76
2023/06/25 08:42:40;;;;;;;8.80;5.70;;;;;;;22.95;100.00;97613.78;4991546;28;20411;-74
2023/06/25 08:45:07;;;;;;;7.63;5.72;;;;;;;23.07;100.00;97619.28;4991985;28;20768;-76
2023/06/25 08:47:39;;;;;;;7.32;5.32;;;;;;;23.16;100.00;97619.22;4991933;28;20415;-74
2023/06/25 08:50:07;;;;;;;8.00;5.32;;;;;;;23.24;100.00;97618.38;4989975;28;20526;-74
2023/06/25 08:52:34;;;;;;;7.35;5.45;;;;;;;23.31;100.00;97617.84;4990680;28;20505;-73
2023/06/25 08:55:00;;;;;;;7.45;5.72;;;;;;;23.38;100.00;97612.75;4992610;28;20438;-73
2023/06/25 08:57:26;;;;;;;6.22;5.07;;;;;;;23.45;100.00;97607.63;4992396;28;20418;-73
2023/06/25 08:59:52;;;;;;;6.07;4.75;;;;;;;23.54;100.00;97611.06;4991145;28;20406;-73
2023/06/25 09:02:18;;;;;;;7.57;5.72;;;;;;;23.62;100.00;97610.19;4992461;28;20407;-73
2023/06/25 09:04:46;;;;;;;7.47;5.63;;;;;;;23.61;100.00;97611.31;4990068;28;20433;-74
2023/06/25 09:07:19;;;;;;;7.75;5.75;;;;;;;23.66;100.00;97607.63;4991806;28;20419;-74
2023/06/25 09:09:51;;;;;;;8.33;6.43;;;;;;;23.69;100.00;97606.97;4987550;28;20422;-74
2023/06/25 09:12:23;;;;;;;7.40;5.60;;;;;;;23.77;100.00;97603.41;4986604;28;20410;-74
2023/06/25 09:14:49;;;;;;;8.93;5.83;;;;;;;23.88;100.00;97604.59;4990269;28;20882;-74
2023/06/25 09:17:20;;;;;;;7.88;6.00;;;;;;;24.01;100.00;97603.50;4991775;28;20418;-74
2023/06/25 09:19:48;;;;;;;8.73;6.50;;;;;;;24.10;100.00;97596.09;4990555;28;20399;-74
2023/06/25 09:22:14;;;;;;;9.07;6.65;;;;;;;24.12;100.00;97590.38;4991595;28;20449;-74
2023/06/25 09:24:43;;;;;;;8.27;5.72;;;;;;;24.21;100.00;97596.47;4991874;28;20483;-74
2023/06/25 09:27:10;;;;;;;7.43;5.03;;;;;;;24.34;100.00;97594.63;4990545;28;20477;-74
2023/06/25 09:29:37;;;;;;;9.32;6.50;;;;;;;24.43;85.65;97596.09;4991605;28;20414;-74
2023/06/25 09:32:10;;;;;;;9.30;6.57;;;;;;;24.28;73.13;97585.94;4991822;28;20418;-74
2023/06/25 09:34:39;;;;;;;10.35;6.25;;;;;;;24.37;79.52;97585.81;4992225;28;20410;-73
2023/06/25 09:37:06;;;;;;;17.98;12.07;;;;;;;24.22;65.16;97589.94;4991376;28;20429;-73
2023/06/25 09:39:33;;;;;;;11.17;7.60;;;;;;;24.29;61.12;97582.88;4991926;28;20407;-74
2023/06/25 09:42:00;;;;;;;8.18;5.93;;;;;;;24.38;63.50;97584.69;4991644;28;20438;-74
2023/06/25 09:44:28;;;;;;;8.55;5.80;;;;;;;24.34;62.66;97587.28;4991673;28;20893;-73
2023/06/25 09:46:59;;;;;;;6.88;5.13;;;;;;;24.40;68.21;97585.16;4992101;28;20410;-74
2023/06/25 09:49:26;;;;;;;7.50;5.55;;;;;;;24.60;63.26;97576.94;4991327;28;20426;-74
2023/06/25 09:51:56;;;;;;;10.23;6.70;;;;;;;24.43;55.75;97573.66;4991783;28;20745;-74
2023/06/25 09:54:25;;;;;;;9.98;6.55;;;;;;;24.37;53.53;97569.56;4991080;28;20411;-73
2023/06/25 09:56:53;;;;;;;9.10;6.30;;;;;;;24.41;57.67;97567.78;4978609;28;20426;-74
2023/06/25 09:59:19;;;;;;;7.55;5.32;;;;;;;24.55;62.50;97574.47;4991439;28;20825;-74
2023/06/25 10:01:46;;;;;;;11.13;6.37;;;;;;;24.55;57.14;97571.75;4991456;28;20476;-73
2023/06/25 10:04:13;;;;;;;12.27;7.45;;;;;;;24.55;58.62;97558.22;4990306;28;20415;-74
2023/06/25 10:06:39;;;;;;;9.38;6.55;;;;;;;24.71;62.99;97562.97;4990897;28;20498;-73
2023/06/25 10:09:06;;;;;;;7.10;5.30;;;;;;;24.92;70.34;97560.94;4991293;28;20496;-73
2023/06/25 10:11:35;;;;;;;6.72;4.90;;;;;;;25.08;74.88;97550.22;4991501;28;20406;-73
2023/06/25 10:14:03;;;;;;;8.48;5.78;;;;;;;25.20;76.26;97550.19;4991019;28;20873;-73
2023/06/25 10:16:32;;;;;;;6.30;4.82;;;;;;;25.40;79.51;97549.25;4990964;28;20950;-73
2023/06/25 10:18:59;;;;;;;9.55;6.65;;;;;;;25.36;67.90;97548.34;4991146;28;20425;-73
2023/06/25 10:21:25;;;;;;;11.63;6.70;;;;;;;25.38;62.87;97562.34;4991279;28;20419;-73
2023/06/25 10:23:59;;;;;;;8.30;5.88;;;;;;;25.60;72.61;97553.72;4991245;28;20767;-73
2023/06/25 10:26:27;;;;;;;7.70;6.07;;;;;;;25.54;67.88;97541.53;4991216;28;20398;-74
2023/06/25 10:28:55;;;;;;;6.77;5.27;;;;;;;25.66;70.35;97541.50;4990885;28;20415;-73
2023/06/25 10:31:22;;;;;;;9.73;7.00;;;;;;;25.51;63.11;97533.28;4990887;28;20509;-73
2023/06/25 10:33:48;;;;;;;7.32;5.30;;;;;;;25.62;67.43;97540.63;4990789;28;20539;-74
2023/06/25 10:36:15;;;;;;;10.52;6.65;;;;;;;25.75;57.92;97541.34;4990837;28;20421;-74
2023/06/25 10:38:41;;;;;;;7.47;5.50;;;;;;;25.74;64.29;97529.72;4990877;28;20494;-74
2023/06/25 10:41:07;;;;;;;7.72;5.88;;;;;;;25.86;65.79;97530.81;4991209;28;20776;-74
2023/06/25 10:43:37;;;;;;;7.00;4.95;;;;;;;26.03;71.90;97535.88;4990589;28;20419;-74
2023/06/25 10:46:05;;;;;;;8.75;6.00;;;;;;;26.09;64.10;97527.16;4991091;28;20407;-74
2023/06/25 10:48:31;;;;;;;10.13;6.88;;;;;;;26.29;57.19;97524.59;4990907;28;20450;-73
2023/06/25 10:50:57;;;;;;;7.43;5.70;;;;;;;26.46;61.48;97518.81;4990717;28;20982;-76
2023/06/25 10:53:24;;;;;;;11.23;7.00;;;;;;;26.36;56.25;97522.03;4990468;28;20583;-74
2023/06/25 10:55:51;;;;;;;8.80;6.65;;;;;;;26.47;57.38;97523.06;4990808;28;20410;-74
2023/06/25 10:58:19;;;;;;;10.23;7.18;;;;;;;26.38;56.24;97509.69;4990802;28;20410;-74
2023/06/25 11:00:51;;;;;;;8.93;6.57;;;;;;;26.30;56.48;97510.66;4990679;28;20419;-74
2023/06/25 11:03:19;;;;;;;11.77;6.82;;;;;;;26.23;50.02;97513.19;4990677;28;20489;-74
2023/06/25 11:05:46;;;;;;;9.55;6.63;;;;;;;26.20;53.76;97511.94;4990592;28;20418;-74
2023/06/25 11:08:13;;;;;;;11.80;7.07;;;;;;;26.17;52.12;97512.63;4989906;28;20911;-74
2023/06/25 11:10:41;;;;;;;11.13;7.20;;;;;;;26.13;51.75;97511.75;4990702;28;20788;-74
2023/06/25 11:13:12;;;;;;;8.85;6.63;;;;;;;26.20;56.99;97508.44;4989504;28;20489;-74
2023/06/25 11:15:41;;;;;;;10.73;6.22;;;;;;;26.44;58.32;97502.88;4994085;28;20406;-74
2023/06/25 11:18:08;;;;;;;8.43;6.18;;;;;;;26.55;63.04;97500.38;4994012;28;20469;-74
2023/06/25 11:20:39;;;;;;;10.90;6.97;;;;;;;26.55;55.59;97489.53;4989353;28;20410;-74
2023/06/25 11:23:06;;;;;;;12.15;8.07;;;;;;;26.51;52.97;97494.09;4994146;28;20406;-74
2023/06/25 11:25:32;;;;;;;9.13;6.93;;;;;;;26.62;56.80;97497.84;4994202;28;20895;-74